SYN117 KSAN-KLAX
Flight info
| Callsign | SYN117 |
|---|---|
| Flight time | 0h 28m |
| Altitude | 10000 |
| Route | CWARD2 SLI |
| Aircraft | BCS3/M-SBDE2E3GIRWXY/LB1 |
Departure
| Time | 2026-04-26 00:52 |
|---|---|
| Airport | San Diego International Airport (KSAN) |
Arrival
| Time | 2026-04-26 01:20 |
|---|---|
| Airport | Los Angeles International Airport (KLAX) |
| Time | Latitude | Longitude | Altitude | Speed | Heading |
|---|---|---|---|---|---|
| 2026-04-26 00:30 | 32.73376 | -117.19815 | 27 ft | 0 kts | 197° |
| 2026-04-26 00:44 | 32.73391 | -117.19809 | 27 ft | 3 kts | 197° |
| 2026-04-26 00:44 | 32.73408 | -117.19803 | 28 ft | 3 kts | 197° |
| 2026-04-26 00:44 | 32.73425 | -117.19797 | 28 ft | 3 kts | 197° |
| 2026-04-26 00:44 | 32.73437 | -117.19793 | 29 ft | 0 kts | 197° |
| 2026-04-26 00:46 | 32.73436 | -117.19793 | 29 ft | 0 kts | 197° |
| 2026-04-26 00:46 | 32.73434 | -117.19794 | 29 ft | 1 kts | 188° |
| 2026-04-26 00:46 | 32.73433 | -117.19792 | 29 ft | 0 kts | 167° |
| 2026-04-26 00:47 | 32.73429 | -117.19788 | 28 ft | 1 kts | 142° |
| 2026-04-26 00:47 | 32.73427 | -117.19778 | 28 ft | 5 kts | 107° |
| 2026-04-26 00:47 | 32.73423 | -117.19732 | 28 ft | 7 kts | 95° |
| 2026-04-26 00:47 | 32.73418 | -117.19667 | 28 ft | 9 kts | 98° |
| 2026-04-26 00:48 | 32.73405 | -117.19594 | 29 ft | 9 kts | 104° |
| 2026-04-26 00:48 | 32.73386 | -117.19514 | 29 ft | 10 kts | 105° |
| 2026-04-26 00:48 | 32.73365 | -117.19425 | 28 ft | 13 kts | 105° |
| 2026-04-26 00:48 | 32.73338 | -117.19312 | 26 ft | 16 kts | 105° |
| 2026-04-26 00:49 | 32.73307 | -117.19180 | 27 ft | 17 kts | 105° |
| 2026-04-26 00:49 | 32.73276 | -117.19045 | 27 ft | 17 kts | 105° |
| 2026-04-26 00:49 | 32.73241 | -117.18907 | 28 ft | 18 kts | 106° |
| 2026-04-26 00:49 | 32.73206 | -117.18763 | 29 ft | 18 kts | 106° |
| 2026-04-26 00:50 | 32.73174 | -117.18614 | 28 ft | 20 kts | 107° |
| 2026-04-26 00:50 | 32.73131 | -117.18447 | 26 ft | 22 kts | 108° |
| 2026-04-26 00:50 | 32.73084 | -117.18271 | 27 ft | 23 kts | 107° |
| 2026-04-26 00:50 | 32.73062 | -117.18156 | 23 ft | 14 kts | 84° |
| 2026-04-26 00:51 | 32.73138 | -117.18136 | 25 ft | 13 kts | 320° |
| 2026-04-26 00:51 | 32.73165 | -117.18181 | 27 ft | 0 kts | 291° |
| 2026-04-26 00:51 | 32.73173 | -117.18208 | 26 ft | 21 kts | 289° |
| 2026-04-26 00:51 | 32.73295 | -117.18717 | 27 ft | 105 kts | 286° |
| 2026-04-26 00:52 | 32.73556 | -117.19744 | 433 ft | 134 kts | 285° |
| 2026-04-26 00:52 | 32.73877 | -117.20818 | 1337 ft | 145 kts | 291° |
| 2026-04-26 00:52 | 32.74388 | -117.21875 | 2230 ft | 151 kts | 299° |
| 2026-04-26 00:52 | 32.74997 | -117.22980 | 3010 ft | 168 kts | 300° |
| 2026-04-26 00:53 | 32.75666 | -117.24185 | 3819 ft | 183 kts | 300° |
| 2026-04-26 00:53 | 32.76401 | -117.25511 | 4678 ft | 200 kts | 301° |
| 2026-04-26 00:53 | 32.77200 | -117.26941 | 5558 ft | 215 kts | 301° |
| 2026-04-26 00:53 | 32.78064 | -117.28488 | 6316 ft | 232 kts | 301° |
| 2026-04-26 00:54 | 32.78977 | -117.30123 | 7055 ft | 249 kts | 301° |
| 2026-04-26 00:54 | 32.79983 | -117.31886 | 7817 ft | 266 kts | 302° |
| 2026-04-26 00:54 | 32.81119 | -117.33669 | 8856 ft | 270 kts | 303° |
| 2026-04-26 00:54 | 32.82284 | -117.35461 | 9797 ft | 281 kts | 302° |
| 2026-04-26 00:55 | 32.83496 | -117.37337 | 10008 ft | 287 kts | 302° |
| 2026-04-26 00:55 | 32.84752 | -117.39287 | 10026 ft | 307 kts | 302° |
| 2026-04-26 00:55 | 32.86056 | -117.41308 | 10002 ft | 306 kts | 302° |
| 2026-04-26 00:55 | 32.87338 | -117.43293 | 9987 ft | 307 kts | 302° |
| 2026-04-26 00:56 | 32.88641 | -117.45313 | 9985 ft | 307 kts | 302° |
| 2026-04-26 00:56 | 32.89942 | -117.47331 | 9983 ft | 307 kts | 302° |
| 2026-04-26 00:56 | 32.91241 | -117.49349 | 9982 ft | 307 kts | 302° |
| 2026-04-26 00:56 | 32.92539 | -117.51367 | 9976 ft | 307 kts | 303° |
| 2026-04-26 00:57 | 32.93841 | -117.53392 | 9980 ft | 307 kts | 303° |
| 2026-04-26 00:57 | 32.95139 | -117.55413 | 9984 ft | 307 kts | 303° |
| 2026-04-26 00:57 | 32.95999 | -117.56752 | 9983 ft | 307 kts | 303° |
| 2026-04-26 00:57 | 32.97297 | -117.58774 | 9983 ft | 307 kts | 303° |
| 2026-04-26 00:58 | 32.99014 | -117.61453 | 9980 ft | 307 kts | 303° |
| 2026-04-26 00:58 | 33.00310 | -117.63475 | 9981 ft | 307 kts | 303° |
| 2026-04-26 00:58 | 33.01605 | -117.65498 | 9980 ft | 307 kts | 303° |
| 2026-04-26 00:58 | 33.02467 | -117.66845 | 9986 ft | 307 kts | 303° |
| 2026-04-26 00:59 | 33.03761 | -117.68869 | 9977 ft | 307 kts | 303° |
| 2026-04-26 00:59 | 33.05055 | -117.70891 | 9977 ft | 308 kts | 303° |
| 2026-04-26 00:59 | 33.06403 | -117.72874 | 9974 ft | 310 kts | 310° |
| 2026-04-26 00:59 | 33.08000 | -117.74621 | 9978 ft | 313 kts | 315° |
| 2026-04-26 01:00 | 33.09655 | -117.76307 | 9978 ft | 312 kts | 315° |
| 2026-04-26 01:00 | 33.11309 | -117.77980 | 9975 ft | 313 kts | 315° |
| 2026-04-26 01:00 | 33.12970 | -117.79665 | 9972 ft | 313 kts | 315° |
| 2026-04-26 01:00 | 33.14627 | -117.81346 | 9978 ft | 312 kts | 315° |
| 2026-04-26 01:01 | 33.16284 | -117.83031 | 9972 ft | 313 kts | 315° |
| 2026-04-26 01:01 | 33.17942 | -117.84718 | 9975 ft | 313 kts | 315° |
| 2026-04-26 01:01 | 33.19823 | -117.86071 | 9978 ft | 323 kts | 335° |
| 2026-04-26 01:01 | 33.21997 | -117.86803 | 9983 ft | 325 kts | 342° |
| 2026-04-26 01:02 | 33.24214 | -117.87385 | 9985 ft | 326 kts | 343° |
| 2026-04-26 01:02 | 33.26438 | -117.87942 | 9976 ft | 326 kts | 344° |
| 2026-04-26 01:02 | 33.28653 | -117.88495 | 9977 ft | 326 kts | 344° |
| 2026-04-26 01:02 | 33.30877 | -117.89049 | 9976 ft | 327 kts | 344° |
| 2026-04-26 01:03 | 33.33048 | -117.89588 | 9975 ft | 319 kts | 344° |
| 2026-04-26 01:03 | 33.35274 | -117.90145 | 9977 ft | 333 kts | 344° |
| 2026-04-26 01:03 | 33.37519 | -117.90705 | 9968 ft | 325 kts | 344° |
| 2026-04-26 01:03 | 33.39701 | -117.91376 | 9972 ft | 325 kts | 339° |
| 2026-04-26 01:04 | 33.41859 | -117.92154 | 9982 ft | 323 kts | 339° |
| 2026-04-26 01:04 | 33.44011 | -117.92940 | 9979 ft | 324 kts | 339° |
| 2026-04-26 01:04 | 33.46178 | -117.93731 | 9977 ft | 324 kts | 339° |
| 2026-04-26 01:04 | 33.48344 | -117.94522 | 9970 ft | 325 kts | 339° |
| 2026-04-26 01:05 | 33.50503 | -117.95309 | 9973 ft | 324 kts | 339° |
| 2026-04-26 01:05 | 33.52670 | -117.96099 | 9969 ft | 324 kts | 339° |
| 2026-04-26 01:05 | 33.54803 | -117.96877 | 9981 ft | 325 kts | 339° |
| 2026-04-26 01:05 | 33.56971 | -117.97668 | 9972 ft | 323 kts | 339° |
| 2026-04-26 01:06 | 33.59122 | -117.98453 | 9973 ft | 323 kts | 339° |
| 2026-04-26 01:06 | 33.61285 | -117.99242 | 9971 ft | 325 kts | 339° |
| 2026-04-26 01:06 | 33.63441 | -118.00029 | 9968 ft | 324 kts | 339° |
| 2026-04-26 01:06 | 33.65603 | -118.00818 | 9961 ft | 324 kts | 339° |
| 2026-04-26 01:07 | 33.67743 | -118.01599 | 9392 ft | 318 kts | 339° |
| 2026-04-26 01:07 | 33.69829 | -118.02360 | 8971 ft | 308 kts | 339° |
| 2026-04-26 01:07 | 33.71839 | -118.03092 | 8757 ft | 293 kts | 339° |
| 2026-04-26 01:07 | 33.73735 | -118.03782 | 9692 ft | 286 kts | 339° |
| 2026-04-26 01:08 | 33.75709 | -118.04509 | 10101 ft | 304 kts | 339° |
| 2026-04-26 01:08 | 33.77704 | -118.05244 | 9852 ft | 301 kts | 338° |
| 2026-04-26 01:08 | 33.79670 | -118.06220 | 8224 ft | 319 kts | 330° |
| 2026-04-26 01:08 | 33.81742 | -118.07488 | 7178 ft | 331 kts | 330° |
| 2026-04-26 01:09 | 33.83734 | -118.08708 | 6799 ft | 313 kts | 330° |
| 2026-04-26 01:09 | 33.85629 | -118.09868 | 6505 ft | 298 kts | 330° |
| 2026-04-26 01:09 | 33.87495 | -118.10809 | 6224 ft | 287 kts | 347° |
| 2026-04-26 01:09 | 33.89436 | -118.10565 | 6018 ft | 279 kts | 21° |
| 2026-04-26 01:10 | 33.90895 | -118.09123 | 5854 ft | 268 kts | 56° |
| 2026-04-26 01:10 | 33.91807 | -118.07269 | 5717 ft | 255 kts | 60° |
| 2026-04-26 01:10 | 33.92553 | -118.05410 | 5632 ft | 239 kts | 69° |
| 2026-04-26 01:10 | 33.93116 | -118.03580 | 5563 ft | 227 kts | 70° |
| 2026-04-26 01:11 | 33.93645 | -118.01843 | 5517 ft | 215 kts | 70° |
| 2026-04-26 01:11 | 33.94167 | -118.00134 | 5108 ft | 223 kts | 70° |
| 2026-04-26 01:11 | 33.94760 | -117.98210 | 4981 ft | 264 kts | 70° |
| 2026-04-26 01:11 | 33.95483 | -117.96194 | 4927 ft | 259 kts | 54° |
| 2026-04-26 01:12 | 33.96893 | -117.94884 | 4954 ft | 260 kts | 18° |
| 2026-04-26 01:12 | 33.98647 | -117.94783 | 4961 ft | 255 kts | 342° |
| 2026-04-26 01:12 | 34.00083 | -117.95910 | 4963 ft | 248 kts | 305° |
| 2026-04-26 01:12 | 34.00657 | -117.97824 | 4965 ft | 244 kts | 268° |
| 2026-04-26 01:13 | 34.00150 | -117.99722 | 4970 ft | 241 kts | 234° |
| 2026-04-26 01:13 | 33.99063 | -118.01259 | 4968 ft | 244 kts | 223° |
| 2026-04-26 01:13 | 33.97983 | -118.02813 | 4959 ft | 243 kts | 246° |
| 2026-04-26 01:13 | 33.97557 | -118.04734 | 4962 ft | 232 kts | 258° |
| 2026-04-26 01:14 | 33.97293 | -118.06624 | 4953 ft | 226 kts | 259° |
| 2026-04-26 01:14 | 33.97048 | -118.08495 | 4950 ft | 224 kts | 260° |
| 2026-04-26 01:14 | 33.96813 | -118.10315 | 4700 ft | 221 kts | 260° |
| 2026-04-26 01:14 | 33.96578 | -118.12177 | 4392 ft | 226 kts | 261° |
| 2026-04-26 01:15 | 33.96356 | -118.14031 | 4084 ft | 223 kts | 261° |
| 2026-04-26 01:15 | 33.96143 | -118.15868 | 3799 ft | 223 kts | 261° |
| 2026-04-26 01:15 | 33.95932 | -118.17714 | 3513 ft | 222 kts | 262° |
| 2026-04-26 01:15 | 33.95732 | -118.19510 | 3217 ft | 207 kts | 262° |
| 2026-04-26 01:16 | 33.95552 | -118.21138 | 2969 ft | 189 kts | 262° |
| 2026-04-26 01:16 | 33.95384 | -118.22645 | 2714 ft | 175 kts | 262° |
| 2026-04-26 01:16 | 33.95223 | -118.24058 | 2502 ft | 165 kts | 262° |
| 2026-04-26 01:16 | 33.95068 | -118.25404 | 2261 ft | 160 kts | 262° |
| 2026-04-26 01:17 | 33.94928 | -118.26689 | 2050 ft | 150 kts | 262° |
| 2026-04-26 01:17 | 33.94795 | -118.27903 | 1865 ft | 140 kts | 262° |
| 2026-04-26 01:17 | 33.94675 | -118.29036 | 1670 ft | 134 kts | 263° |
| 2026-04-26 01:17 | 33.94563 | -118.30148 | 1493 ft | 133 kts | 263° |
| 2026-04-26 01:18 | 33.94451 | -118.31239 | 1321 ft | 131 kts | 264° |
| 2026-04-26 01:18 | 33.94344 | -118.32335 | 1135 ft | 131 kts | 263° |
| 2026-04-26 01:18 | 33.94229 | -118.33434 | 937 ft | 132 kts | 262° |
| 2026-04-26 01:18 | 33.94118 | -118.34516 | 751 ft | 131 kts | 262° |
| 2026-04-26 01:19 | 33.94007 | -118.35635 | 584 ft | 135 kts | 261° |
| 2026-04-26 01:19 | 33.93892 | -118.36718 | 398 ft | 130 kts | 261° |
| 2026-04-26 01:19 | 33.93786 | -118.37789 | 225 ft | 128 kts | 262° |
| 2026-04-26 01:19 | 33.93676 | -118.38837 | 128 ft | 106 kts | 262° |
| 2026-04-26 01:20 | 33.93603 | -118.39513 | 128 ft | 51 kts | 266° |
| 2026-04-26 01:20 | 33.93619 | -118.39828 | 128 ft | 28 kts | 284° |
| 2026-04-26 01:20 | 33.93662 | -118.39989 | 126 ft | 16 kts | 281° |
| 2026-04-26 01:20 | 33.93660 | -118.40129 | 128 ft | 17 kts | 265° |
| 2026-04-26 01:21 | 33.93641 | -118.40185 | 126 ft | 0 kts | 230° |
| 2026-04-26 01:21 | 33.93636 | -118.40229 | 128 ft | 20 kts | 274° |
| 2026-04-26 01:21 | 33.93640 | -118.40318 | 128 ft | 5 kts | 264° |
| 2026-04-26 01:22 | 33.93634 | -118.40363 | 128 ft | 6 kts | 261° |
| 2026-04-26 01:22 | 33.93627 | -118.40420 | 128 ft | 8 kts | 261° |
| 2026-04-26 01:22 | 33.93621 | -118.40489 | 128 ft | 9 kts | 265° |
| 2026-04-26 01:22 | 33.93619 | -118.40516 | 128 ft | 0 kts | 265° |
| 2026-04-26 01:23 | 33.93618 | -118.40520 | 128 ft | 4 kts | 265° |
| 2026-04-26 01:23 | 33.93606 | -118.40649 | 126 ft | 26 kts | 259° |
| 2026-04-26 01:23 | 33.93594 | -118.40773 | 126 ft | 5 kts | 264° |
| 2026-04-26 01:24 | 33.93597 | -118.40820 | 124 ft | 7 kts | 279° |
| 2026-04-26 01:24 | 33.93606 | -118.40845 | 126 ft | 0 kts | 298° |
| 2026-04-26 01:26 | 33.93606 | -118.40846 | 126 ft | 0 kts | 298° |
| 2026-04-26 01:26 | 33.93612 | -118.40858 | 126 ft | 4 kts | 300° |
| 2026-04-26 01:26 | 33.93675 | -118.40896 | 125 ft | 17 kts | 351° |
| 2026-04-26 01:27 | 33.93743 | -118.40909 | 125 ft | 6 kts | 351° |
| 2026-04-26 01:27 | 33.93827 | -118.40918 | 126 ft | 8 kts | 349° |
| 2026-04-26 01:27 | 33.93852 | -118.40909 | 126 ft | 4 kts | 42° |
| 2026-04-26 01:27 | 33.93879 | -118.40829 | 128 ft | 20 kts | 75° |
| 2026-04-26 01:28 | 33.93935 | -118.40734 | 125 ft | 7 kts | 46° |
| 2026-04-26 01:28 | 33.93946 | -118.40721 | 124 ft | 0 kts | 45° |